createdAt,value
2019-02-20T00:02:18.629Z,6.50
2019-02-20T00:04:48.287Z,6.53
2019-02-20T00:07:17.966Z,6.52
2019-02-20T00:09:47.631Z,6.47
2019-02-20T00:12:17.563Z,6.47
2019-02-20T00:14:47.266Z,6.49
2019-02-20T00:17:16.926Z,6.48
2019-02-20T00:19:46.593Z,6.48
2019-02-20T00:22:16.263Z,6.48
2019-02-20T00:24:45.931Z,6.46
2019-02-20T00:27:15.621Z,6.44
2019-02-20T00:29:45.259Z,6.43
2019-02-20T00:32:14.938Z,6.42
2019-02-20T00:34:44.869Z,6.40
2019-02-20T00:37:14.578Z,6.43
2019-02-20T00:39:44.393Z,6.41
2019-02-20T00:42:14.048Z,6.40
2019-02-20T00:44:59.228Z,6.42
2019-02-20T00:47:37.632Z,6.41
2019-02-20T00:50:07.775Z,6.42
2019-02-20T00:53:02.968Z,6.42
2019-02-20T00:55:32.632Z,6.45
2019-02-20T00:58:02.548Z,6.44
2019-02-20T01:00:32.215Z,6.44
2019-02-20T01:03:02.191Z,6.47
2019-02-20T01:05:31.991Z,6.46
2019-02-20T01:08:01.731Z,6.49
2019-02-20T01:10:31.421Z,6.49
2019-02-20T01:13:01.075Z,6.49
2019-02-20T01:15:30.930Z,6.48
2019-02-20T01:18:00.600Z,6.50
2019-02-20T01:20:30.263Z,6.53
2019-02-20T01:23:00.514Z,6.51
2019-02-20T01:25:30.203Z,6.51
2019-02-20T01:28:00.223Z,6.52
2019-02-20T01:30:30.004Z,6.54
2019-02-20T01:32:59.684Z,6.55
2019-02-20T01:35:29.373Z,6.56
2019-02-20T01:37:59.015Z,6.55
2019-02-20T01:40:28.684Z,6.58
2019-02-20T01:42:58.336Z,6.60
2019-02-20T01:45:28.076Z,6.62
2019-02-20T01:47:57.790Z,6.63
2019-02-20T01:50:27.444Z,6.65
2019-02-20T01:52:57.181Z,6.67
2019-02-20T01:55:26.843Z,6.66
2019-02-20T01:57:56.528Z,6.67
2019-02-20T02:00:26.341Z,6.67
2019-02-20T02:02:56.109Z,6.66
2019-02-20T02:05:25.870Z,6.68
2019-02-20T02:07:55.864Z,6.66
2019-02-20T02:10:25.522Z,6.66
2019-02-20T02:12:55.368Z,6.66
2019-02-20T02:15:25.068Z,6.68
2019-02-20T02:17:54.732Z,6.68
2019-02-20T02:20:24.386Z,6.69
2019-02-20T02:22:54.301Z,6.70
2019-02-20T02:25:23.967Z,6.70
2019-02-20T02:27:53.716Z,6.69
2019-02-20T02:30:23.401Z,6.69
2019-02-20T02:32:53.069Z,6.69
2019-02-20T02:35:23.147Z,6.69
2019-02-20T02:37:52.810Z,6.72
2019-02-20T02:40:22.604Z,6.72
2019-02-20T02:42:53.253Z,6.74
2019-02-20T02:45:22.959Z,6.74
2019-02-20T02:47:52.605Z,6.74
2019-02-20T02:50:22.299Z,6.74
2019-02-20T02:52:52.161Z,6.75
2019-02-20T02:55:21.888Z,6.78
2019-02-20T02:57:51.550Z,6.78
2019-02-20T03:00:21.490Z,6.78
2019-02-20T03:02:51.187Z,6.79
2019-02-20T03:05:21.212Z,6.78
2019-02-20T03:07:51.124Z,6.77
2019-02-20T03:10:20.810Z,6.77
2019-02-20T03:12:50.895Z,6.78
2019-02-20T03:15:20.583Z,6.77
2019-02-20T03:17:50.313Z,6.77
2019-02-20T03:20:20.012Z,6.75
2019-02-20T03:22:49.677Z,6.76
2019-02-20T03:25:19.365Z,6.75
2019-02-20T03:27:49.033Z,6.76
2019-02-20T03:30:18.710Z,6.76
2019-02-20T03:32:48.627Z,6.78
2019-02-20T03:35:18.285Z,6.77
2019-02-20T03:37:48.301Z,6.75
2019-02-20T03:40:17.987Z,6.75
2019-02-20T03:42:47.660Z,6.73
2019-02-20T03:45:17.654Z,6.76
2019-02-20T03:47:47.303Z,6.74
2019-02-20T03:50:16.991Z,6.75
2019-02-20T03:52:46.845Z,6.75
2019-02-20T03:55:16.697Z,6.77
2019-02-20T03:57:46.632Z,6.78
2019-02-20T04:00:16.394Z,6.78
2019-02-20T04:02:46.061Z,6.79
2019-02-20T04:05:15.881Z,6.80
2019-02-20T04:07:45.543Z,6.79
2019-02-20T04:10:15.243Z,6.77
2019-02-20T04:12:44.911Z,6.78
2019-02-20T04:15:14.664Z,6.77
2019-02-20T04:17:44.410Z,6.74
2019-02-20T04:20:14.079Z,6.70
2019-02-20T04:22:43.749Z,6.70
2019-02-20T04:25:13.413Z,6.73
2019-02-20T04:27:43.081Z,6.73
2019-02-20T04:30:13.413Z,6.71
2019-02-20T04:32:43.341Z,6.70
2019-02-20T04:35:13.097Z,6.70
2019-02-20T04:37:42.768Z,6.71
2019-02-20T04:40:12.762Z,6.68
2019-02-20T04:42:42.424Z,6.68
2019-02-20T04:45:12.182Z,6.67
2019-02-20T04:47:41.922Z,6.69
2019-02-20T04:50:11.685Z,6.69
2019-02-20T04:52:41.361Z,6.66
2019-02-20T04:55:11.700Z,6.67
2019-02-20T04:57:41.357Z,6.66
2019-02-20T05:00:12.385Z,6.63
2019-02-20T05:02:42.056Z,6.61
2019-02-20T05:05:11.805Z,6.58
2019-02-20T05:07:41.475Z,6.55
2019-02-20T05:10:11.387Z,6.52
2019-02-20T05:12:41.055Z,6.48
2019-02-20T05:15:10.875Z,6.47
2019-02-20T05:17:40.823Z,6.46
2019-02-20T05:20:10.574Z,6.43
2019-02-20T05:22:40.239Z,6.40
2019-02-20T05:25:10.906Z,6.39
2019-02-20T05:27:40.567Z,6.36
2019-02-20T05:30:10.491Z,6.34
2019-02-20T05:32:40.171Z,6.32
2019-02-20T05:35:09.905Z,6.30
2019-02-20T05:37:39.778Z,6.26
2019-02-20T05:40:09.582Z,6.23
2019-02-20T05:42:39.336Z,6.23
2019-02-20T05:45:09.045Z,6.23
2019-02-20T05:47:38.731Z,6.25
2019-02-20T05:50:08.677Z,6.21
2019-02-20T05:52:38.358Z,6.21
2019-02-20T05:55:08.196Z,6.18
2019-02-20T05:57:37.901Z,6.13
2019-02-20T06:00:08.730Z,6.07
2019-02-20T06:02:38.399Z,6.06
2019-02-20T06:05:08.291Z,6.04
2019-02-20T06:07:38.350Z,6.03
2019-02-20T06:10:09.239Z,6.01
2019-02-20T06:12:38.907Z,6.01
2019-02-20T06:15:09.037Z,5.99
2019-02-20T06:17:39.004Z,5.99
2019-02-20T06:20:09.118Z,5.99
2019-02-20T06:22:39.030Z,6.01
2019-02-20T06:25:09.153Z,6.03
2019-02-20T06:27:38.789Z,6.01
2019-02-20T06:30:09.389Z,6.01
2019-02-20T06:32:39.061Z,6.03
2019-02-20T06:35:08.828Z,6.05
2019-02-20T06:37:38.761Z,6.05
2019-02-20T06:40:09.083Z,6.06
2019-02-20T06:42:38.840Z,6.06
2019-02-20T06:45:09.015Z,6.07
2019-02-20T06:47:38.938Z,6.06
2019-02-20T06:50:08.710Z,6.08
2019-02-20T06:52:38.638Z,6.10
2019-02-20T06:55:08.930Z,6.08
2019-02-20T06:57:38.603Z,6.10
2019-02-20T07:00:09.809Z,6.10
2019-02-20T07:02:39.480Z,6.08
2019-02-20T07:05:44.508Z,6.09
2019-02-20T07:08:50.864Z,6.09
2019-02-20T07:11:58.686Z,6.10
2019-02-20T07:14:42.250Z,6.09
2019-02-20T07:17:40.365Z,6.07
2019-02-20T07:20:41.743Z,6.07
2019-02-20T07:23:37.817Z,6.04
2019-02-20T07:26:19.863Z,6.08
2019-02-20T07:29:15.405Z,6.08
2019-02-20T07:31:46.054Z,6.08
2019-02-20T07:34:16.117Z,6.06
2019-02-20T07:36:45.818Z,6.06
2019-02-20T07:39:15.564Z,6.08
2019-02-20T07:41:45.255Z,6.12
2019-02-20T07:44:15.045Z,6.16
2019-02-20T07:46:44.801Z,6.18
2019-02-20T07:49:14.801Z,6.24
2019-02-20T07:51:44.522Z,6.29
2019-02-20T07:54:14.155Z,6.35
2019-02-20T07:56:43.845Z,6.40
2019-02-20T07:59:13.523Z,6.45
2019-02-20T08:01:43.416Z,6.49
2019-02-20T08:04:13.361Z,6.54
2019-02-20T08:06:43.018Z,6.60
2019-02-20T08:09:14.314Z,6.65
2019-02-20T08:11:43.983Z,6.68
2019-02-20T08:14:13.686Z,6.74
2019-02-20T08:16:52.026Z,6.79
2019-02-20T08:19:14.733Z,6.83
2019-02-20T08:21:44.425Z,6.90
2019-02-20T08:24:14.267Z,6.95
2019-02-20T08:26:43.940Z,7.02
2019-02-20T08:29:13.718Z,7.09
2019-02-20T08:31:43.396Z,7.15
2019-02-20T08:34:13.164Z,7.21
2019-02-20T08:36:42.881Z,7.25
2019-02-20T08:39:12.551Z,7.30
2019-02-20T08:41:42.469Z,7.30
2019-02-20T08:44:12.470Z,7.37
2019-02-20T08:46:42.187Z,7.39
2019-02-20T08:49:11.869Z,7.45
2019-02-20T08:51:41.680Z,7.45
2019-02-20T08:54:11.365Z,7.55
2019-02-20T08:56:41.307Z,7.59
2019-02-20T08:59:11.210Z,7.65
2019-02-20T09:01:40.890Z,7.68
2019-02-20T09:04:10.564Z,7.73
2019-02-20T09:06:40.566Z,7.77
2019-02-20T09:09:10.559Z,7.83
2019-02-20T09:11:40.509Z,7.86
2019-02-20T09:14:11.116Z,7.94
2019-02-20T09:16:41.041Z,8.02
2019-02-20T09:19:10.976Z,8.08
2019-02-20T09:21:40.672Z,8.13
2019-02-20T09:24:10.445Z,8.23
2019-02-20T09:26:40.122Z,8.32
2019-02-20T09:29:09.980Z,8.36
2019-02-20T09:31:39.640Z,8.43
2019-02-20T09:34:09.577Z,8.48
2019-02-20T09:36:39.252Z,8.60
2019-02-20T09:39:34.797Z,8.66
2019-02-20T09:42:06.419Z,8.69
2019-02-20T09:44:43.541Z,8.75
2019-02-20T09:47:13.782Z,8.83
2019-02-20T09:49:43.561Z,8.90
2019-02-20T09:52:13.313Z,8.94
2019-02-20T09:54:42.989Z,9.01
2019-02-20T09:57:12.894Z,9.07
2019-02-20T09:59:42.768Z,9.15
2019-02-20T10:02:12.687Z,9.24
2019-02-20T10:04:42.349Z,9.29
2019-02-20T10:07:12.324Z,9.34
2019-02-20T10:09:42.000Z,9.39
2019-02-20T10:12:11.702Z,9.47
2019-02-20T10:14:42.543Z,9.56
2019-02-20T10:17:12.846Z,9.65
2019-02-20T10:19:42.669Z,9.73
2019-02-20T10:22:12.349Z,9.80
2019-02-20T10:24:42.079Z,9.89
2019-02-20T10:27:12.735Z,10.00
2019-02-20T10:29:42.565Z,10.06
2019-02-20T10:32:12.970Z,10.12
2019-02-20T10:34:42.636Z,10.19
2019-02-20T10:37:12.410Z,10.24
2019-02-20T10:39:42.101Z,10.31
2019-02-20T10:42:11.770Z,10.34
2019-02-20T10:44:43.494Z,10.40
2019-02-20T10:47:13.199Z,10.50
2019-02-20T10:49:43.885Z,10.62
2019-02-20T10:52:13.538Z,10.77
2019-02-20T10:54:45.643Z,10.84
2019-02-20T10:57:15.654Z,10.91
2019-02-20T10:59:45.446Z,10.97
2019-02-20T11:02:15.486Z,11.01
2019-02-20T11:04:45.165Z,11.05
2019-02-20T11:07:14.858Z,11.03
2019-02-20T11:09:46.291Z,10.99
2019-02-20T11:12:15.969Z,11.03
2019-02-20T11:14:45.924Z,11.07
2019-02-20T11:17:15.605Z,11.11
2019-02-20T11:19:45.364Z,11.08
2019-02-20T11:22:15.046Z,11.08
2019-02-20T11:24:44.707Z,11.10
2019-02-20T11:27:14.369Z,11.15
2019-02-20T11:29:44.073Z,11.15
2019-02-20T11:32:13.745Z,11.15
2019-02-20T11:34:43.418Z,11.15
2019-02-20T11:37:13.207Z,11.10
2019-02-20T11:39:43.113Z,11.10
2019-02-20T11:42:12.794Z,11.06
2019-02-20T11:44:42.494Z,11.07
2019-02-20T11:47:12.613Z,11.15
2019-02-20T11:49:42.283Z,11.25
2019-02-20T11:52:12.370Z,11.29
2019-02-20T11:54:42.064Z,11.34
2019-02-20T11:57:13.991Z,11.45
2019-02-20T11:59:43.788Z,11.52
2019-02-20T12:02:13.778Z,11.58
2019-02-20T12:04:43.777Z,11.62
2019-02-20T12:07:13.517Z,11.71
2019-02-20T12:09:45.352Z,11.73
2019-02-20T12:12:16.028Z,11.76
2019-02-20T12:14:45.706Z,11.80
2019-02-20T12:17:15.436Z,11.80
2019-02-20T12:19:45.523Z,11.88
2019-02-20T12:22:15.195Z,11.98
2019-02-20T12:24:44.922Z,12.09
2019-02-20T12:27:14.584Z,12.21
2019-02-20T12:29:44.291Z,12.23
2019-02-20T12:32:14.135Z,12.24
2019-02-20T12:34:43.806Z,12.27
2019-02-20T12:37:13.573Z,12.31
2019-02-20T12:39:44.042Z,12.30
2019-02-20T12:42:13.803Z,12.29
2019-02-20T12:44:45.651Z,12.38
2019-02-20T12:47:15.494Z,12.44
2019-02-20T12:49:46.366Z,12.51
2019-02-20T12:52:17.131Z,12.58
2019-02-20T12:54:46.818Z,12.60
2019-02-20T12:57:16.595Z,12.59
2019-02-20T12:59:47.428Z,12.55
2019-02-20T13:02:17.103Z,12.55
2019-02-20T13:04:46.927Z,12.55
2019-02-20T13:07:17.720Z,12.54
2019-02-20T13:09:47.492Z,12.53
2019-02-20T13:12:17.242Z,12.57
2019-02-20T13:14:46.926Z,12.56
2019-02-20T13:17:16.853Z,12.61
2019-02-20T13:19:46.870Z,12.59
2019-02-20T13:22:16.842Z,12.64
2019-02-20T13:24:46.552Z,12.64
2019-02-20T13:27:22.503Z,12.61
2019-02-20T13:29:47.614Z,12.57
2019-02-20T13:32:17.932Z,12.61
2019-02-20T13:34:47.614Z,12.58
2019-02-20T13:37:17.463Z,12.57
2019-02-20T13:39:47.142Z,12.56
2019-02-20T13:42:18.393Z,12.57
2019-02-20T13:44:48.089Z,12.61
2019-02-20T13:47:18.039Z,12.63
2019-02-20T13:49:47.734Z,12.65
2019-02-20T13:52:17.664Z,12.72
2019-02-20T13:54:47.867Z,12.78
2019-02-20T13:57:18.382Z,12.88
2019-02-20T13:59:48.058Z,12.87
2019-02-20T14:02:17.763Z,12.81
2019-02-20T14:04:47.450Z,12.79
2019-02-20T14:07:17.139Z,12.72
2019-02-20T14:09:46.824Z,12.73
2019-02-20T14:12:16.869Z,12.71
2019-02-20T14:14:47.117Z,12.70
2019-02-20T14:17:16.796Z,12.69
2019-02-20T14:19:46.556Z,12.67
2019-02-20T14:22:16.252Z,12.62
2019-02-20T14:24:45.928Z,12.60
2019-02-20T14:27:17.345Z,12.59
2019-02-20T14:29:47.066Z,12.62
2019-02-20T14:32:16.754Z,12.59
2019-02-20T14:34:47.202Z,12.60
2019-02-20T14:37:16.870Z,12.61
2019-02-20T14:39:46.557Z,12.57
2019-02-20T14:42:16.793Z,12.56
2019-02-20T14:44:46.811Z,12.57
2019-02-20T14:47:17.462Z,12.57
2019-02-20T14:49:47.248Z,12.59
2019-02-20T14:52:18.633Z,12.55
2019-02-20T14:54:48.375Z,12.56
2019-02-20T14:57:19.869Z,12.59
2019-02-20T14:59:49.692Z,12.56
2019-02-20T15:02:19.753Z,12.54
2019-02-20T15:04:49.455Z,12.51
2019-02-20T15:07:19.132Z,12.51
2019-02-20T15:09:48.832Z,12.50
2019-02-20T15:12:19.821Z,12.47
2019-02-20T15:14:49.520Z,12.41
2019-02-20T15:17:19.190Z,12.43
2019-02-20T15:19:48.881Z,12.42
2019-02-20T15:22:18.569Z,12.46
2019-02-20T15:24:48.334Z,12.43
2019-02-20T15:27:19.247Z,12.41
2019-02-20T15:29:49.966Z,12.40
2019-02-20T15:32:19.730Z,12.33
2019-02-20T15:34:49.409Z,12.31
2019-02-20T15:37:19.340Z,12.27
2019-02-20T15:39:49.293Z,12.27
2019-02-20T15:42:19.229Z,12.25
2019-02-20T15:44:48.960Z,12.21
2019-02-20T15:47:18.629Z,12.18
2019-02-20T15:49:48.324Z,12.15
2019-02-20T15:52:18.238Z,12.17
2019-02-20T15:54:48.202Z,12.16
2019-02-20T15:57:18.149Z,12.16
2019-02-20T15:59:47.839Z,12.14
2019-02-20T16:02:23.299Z,12.18
2019-02-20T16:04:58.262Z,12.17
2019-02-20T16:07:27.947Z,12.18
2019-02-20T16:09:57.902Z,12.19
2019-02-20T16:12:28.064Z,12.17
2019-02-20T16:14:57.888Z,12.16
2019-02-20T16:17:37.908Z,12.15
2019-02-20T16:20:08.979Z,12.14
2019-02-20T16:22:38.982Z,12.14
2019-02-20T16:25:10.558Z,12.12
2019-02-20T16:27:46.743Z,12.11
2019-02-20T16:30:12.450Z,12.08
2019-02-20T16:32:43.220Z,12.07
2019-02-20T16:35:13.263Z,12.06
2019-02-20T16:37:42.942Z,12.06
2019-02-20T16:40:13.484Z,12.04
2019-02-20T16:42:43.473Z,12.04
2019-02-20T16:45:21.839Z,12.02
2019-02-20T16:47:52.218Z,11.98
2019-02-20T16:50:21.998Z,11.93
2019-02-20T16:52:51.896Z,11.90
2019-02-20T16:55:22.707Z,11.87
2019-02-20T16:57:56.628Z,11.86
2019-02-20T17:00:24.594Z,11.84
2019-02-20T17:02:54.638Z,11.82
2019-02-20T17:05:24.324Z,11.80
2019-02-20T17:07:54.158Z,11.79
2019-02-20T17:10:23.969Z,11.79
2019-02-20T17:12:53.650Z,11.78
2019-02-20T17:15:23.481Z,11.76
2019-02-20T17:17:53.512Z,11.73
2019-02-20T17:20:23.211Z,11.67
2019-02-20T17:22:53.174Z,11.63
2019-02-20T17:25:23.350Z,11.58
2019-02-20T17:28:05.310Z,11.55
2019-02-20T17:30:28.424Z,11.53
2019-02-20T17:32:58.128Z,11.50
2019-02-20T17:35:28.128Z,11.46
2019-02-20T17:37:57.953Z,11.45
2019-02-20T17:40:27.707Z,11.43
2019-02-20T17:42:57.386Z,11.39
2019-02-20T17:45:28.461Z,11.38
2019-02-20T17:47:58.428Z,11.38
2019-02-20T17:50:28.203Z,11.38
2019-02-20T17:52:57.922Z,11.34
2019-02-20T17:55:27.597Z,11.31
2019-02-20T17:57:57.351Z,11.29
2019-02-20T18:00:28.927Z,11.29
2019-02-20T18:02:58.726Z,11.26
2019-02-20T18:05:28.482Z,11.23
2019-02-20T18:07:58.273Z,11.19
2019-02-20T18:10:28.851Z,11.16
2019-02-20T18:12:58.537Z,11.14
2019-02-20T18:15:28.217Z,11.11
2019-02-20T18:17:57.969Z,11.09
2019-02-20T18:20:27.658Z,11.07
2019-02-20T18:22:57.414Z,11.04
2019-02-20T18:25:27.618Z,11.00
2019-02-20T18:27:59.499Z,10.99
2019-02-20T18:30:28.758Z,10.95
2019-02-20T18:32:58.422Z,10.92
2019-02-20T18:35:28.444Z,10.89
2019-02-20T18:37:58.154Z,10.88
2019-02-20T18:40:27.818Z,10.86
2019-02-20T18:42:57.502Z,10.82
2019-02-20T18:45:27.618Z,10.78
2019-02-20T18:47:57.306Z,10.75
2019-02-20T18:50:27.870Z,10.71
2019-02-20T18:53:01.195Z,10.67
2019-02-20T18:55:31.055Z,10.65
2019-02-20T18:58:00.723Z,10.61
2019-02-20T19:00:30.565Z,10.56
2019-02-20T19:03:00.413Z,10.55
2019-02-20T19:05:30.279Z,10.51
2019-02-20T19:08:00.018Z,10.46
2019-02-20T19:10:33.821Z,10.44
2019-02-20T19:13:40.212Z,10.41
2019-02-20T19:16:46.552Z,10.42
2019-02-20T19:19:39.826Z,10.41
2019-02-20T19:22:37.239Z,10.37
2019-02-20T19:25:49.517Z,10.35
2019-02-20T19:28:24.227Z,10.30
2019-02-20T19:31:12.077Z,10.28
2019-02-20T19:33:58.021Z,10.24
2019-02-20T19:37:11.853Z,10.23
2019-02-20T19:40:25.131Z,10.19
2019-02-20T19:43:14.947Z,10.10
2019-02-20T19:46:16.457Z,10.06
2019-02-20T19:48:57.297Z,10.04
2019-02-20T19:52:00.772Z,10.01
2019-02-20T19:54:42.179Z,9.98
2019-02-20T19:57:56.419Z,9.97
2019-02-20T20:01:21.520Z,9.97
2019-02-20T20:04:09.630Z,9.94
2019-02-20T20:07:16.095Z,9.87
2019-02-20T20:10:26.757Z,9.84
2019-02-20T20:13:22.965Z,9.82
2019-02-20T20:16:26.322Z,9.78
2019-02-20T20:19:24.065Z,9.74
2019-02-20T20:22:24.092Z,9.71
2019-02-20T20:25:07.001Z,9.67
2019-02-20T20:28:21.892Z,9.66
2019-02-20T20:31:16.705Z,9.64
2019-02-20T20:34:02.931Z,9.61
2019-02-20T20:37:00.897Z,9.59
2019-02-20T20:40:04.360Z,9.53
2019-02-20T20:43:01.594Z,9.50
2019-02-20T20:46:06.861Z,9.42
2019-02-20T20:49:05.587Z,9.37
2019-02-20T20:52:23.061Z,9.29
2019-02-20T20:55:22.979Z,9.20
2019-02-20T20:58:20.128Z,9.13
2019-02-20T21:01:18.249Z,9.10
2019-02-20T21:04:29.701Z,9.02
2019-02-20T21:07:22.433Z,8.97
2019-02-20T21:10:31.560Z,8.92
2019-02-20T21:13:29.062Z,8.87
2019-02-20T21:16:27.626Z,8.81
2019-02-20T21:19:29.730Z,8.75
2019-02-20T21:22:24.576Z,8.68
2019-02-20T21:25:22.129Z,8.59
2019-02-20T21:28:24.470Z,8.53
2019-02-20T21:31:33.998Z,8.49
2019-02-20T21:34:38.857Z,8.45
2019-02-20T21:37:45.246Z,8.40
2019-02-20T21:40:44.084Z,8.36
2019-02-20T21:44:01.106Z,8.35
2019-02-20T21:47:09.503Z,8.33
2019-02-20T21:50:28.276Z,8.30
2019-02-20T21:53:28.223Z,8.29
2019-02-20T21:56:37.808Z,8.30
2019-02-20T21:59:38.848Z,8.26
2019-02-20T22:02:32.075Z,8.25
2019-02-20T22:05:31.311Z,8.24
2019-02-20T22:08:46.768Z,8.22
2019-02-20T22:12:02.796Z,8.21
2019-02-20T22:15:11.885Z,8.19
2019-02-20T22:18:03.477Z,8.18
2019-02-20T22:20:58.886Z,8.18
2019-02-20T22:23:52.261Z,8.20
2019-02-20T22:26:57.511Z,8.24
2019-02-20T22:30:05.632Z,8.26
2019-02-20T22:32:41.929Z,8.29
2019-02-20T22:35:58.197Z,8.32
2019-02-20T22:39:06.289Z,8.34
2019-02-20T22:42:15.748Z,8.36
2019-02-20T22:45:24.300Z,8.38
2019-02-20T22:48:27.960Z,8.40
2019-02-20T22:51:24.557Z,8.39
2019-02-20T22:54:27.444Z,8.42
2019-02-20T22:57:33.390Z,8.39
2019-02-20T23:00:57.288Z,8.40
2019-02-20T23:03:58.227Z,8.36
2019-02-20T23:07:13.725Z,8.35
2019-02-20T23:10:24.563Z,8.30
2019-02-20T23:13:30.201Z,8.23
2019-02-20T23:16:00.412Z,8.18
2019-02-20T23:18:30.112Z,8.09
2019-02-20T23:20:59.815Z,8.05
2019-02-20T23:23:29.501Z,8.02
2019-02-20T23:25:59.440Z,8.00
2019-02-20T23:28:30.999Z,7.99
2019-02-20T23:31:00.494Z,7.97
2019-02-20T23:33:30.282Z,7.94
2019-02-20T23:36:00.113Z,7.94
2019-02-20T23:38:30.265Z,7.92
2019-02-20T23:41:00.125Z,7.90
2019-02-20T23:43:31.091Z,7.89
2019-02-20T23:46:01.008Z,7.88
2019-02-20T23:48:31.205Z,7.87
2019-02-20T23:51:00.882Z,7.87
2019-02-20T23:53:30.645Z,7.88
2019-02-20T23:56:00.321Z,7.89
2019-02-20T23:58:30.009Z,7.89
